sensor_id;sensor_type;location;lat;lon;timestamp;temperature;humidity
8953;DHT22;4511;50.890;8.054;2023-08-07T00:00:44;13.20;99.90
8953;DHT22;4511;50.890;8.054;2023-08-07T00:03:11;13.30;99.90
8953;DHT22;4511;50.890;8.054;2023-08-07T00:05:44;13.30;99.90
8953;DHT22;4511;50.890;8.054;2023-08-07T00:08:11;13.10;99.90
8953;DHT22;4511;50.890;8.054;2023-08-07T00:10:38;13.20;99.90
8953;DHT22;4511;50.890;8.054;2023-08-07T00:13:05;13.30;99.90
8953;DHT22;4511;50.890;8.054;2023-08-07T00:15:34;13.40;99.90
8953;DHT22;4511;50.890;8.054;2023-08-07T00:18:01;13.30;99.90
8953;DHT22;4511;50.890;8.054;2023-08-07T00:20:27;13.30;99.90
8953;DHT22;4511;50.890;8.054;2023-08-07T00:22:54;13.30;99.90
8953;DHT22;4511;50.890;8.054;2023-08-07T00:25:21;13.20;99.90
8953;DHT22;4511;50.890;8.054;2023-08-07T00:27:48;13.30;99.90
8953;DHT22;4511;50.890;8.054;2023-08-07T00:30:15;13.30;99.90
8953;DHT22;4511;50.890;8.054;2023-08-07T00:32:43;13.10;99.90
8953;DHT22;4511;50.890;8.054;2023-08-07T00:35:10;13.20;99.90
8953;DHT22;4511;50.890;8.054;2023-08-07T00:37:37;13.20;99.90
8953;DHT22;4511;50.890;8.054;2023-08-07T00:40:05;13.10;99.90
8953;DHT22;4511;50.890;8.054;2023-08-07T00:42:32;13.10;99.90
8953;DHT22;4511;50.890;8.054;2023-08-07T00:44:58;12.90;99.90
8953;DHT22;4511;50.890;8.054;2023-08-07T00:47:26;13.00;99.90
8953;DHT22;4511;50.890;8.054;2023-08-07T00:49:56;13.00;99.90
8953;DHT22;4511;50.890;8.054;2023-08-07T00:52:22;13.10;99.90
8953;DHT22;4511;50.890;8.054;2023-08-07T00:54:49;13.20;99.90
8953;DHT22;4511;50.890;8.054;2023-08-07T00:57:17;13.10;99.90
8953;DHT22;4511;50.890;8.054;2023-08-07T00:59:48;13.10;99.90
8953;DHT22;4511;50.890;8.054;2023-08-07T01:02:15;13.00;99.90
8953;DHT22;4511;50.890;8.054;2023-08-07T01:04:42;13.10;99.90
8953;DHT22;4511;50.890;8.054;2023-08-07T01:07:10;13.10;99.90
8953;DHT22;4511;50.890;8.054;2023-08-07T01:09:37;13.10;99.90
8953;DHT22;4511;50.890;8.054;2023-08-07T01:12:10;13.00;99.90
8953;DHT22;4511;50.890;8.054;2023-08-07T01:14:54;13.00;99.90
8953;DHT22;4511;50.890;8.054;2023-08-07T01:17:22;13.00;99.90
8953;DHT22;4511;50.890;8.054;2023-08-07T01:19:50;12.80;99.90
8953;DHT22;4511;50.890;8.054;2023-08-07T01:22:20;12.70;99.90
8953;DHT22;4511;50.890;8.054;2023-08-07T01:24:49;12.80;99.90
8953;DHT22;4511;50.890;8.054;2023-08-07T01:27:33;12.70;99.90
8953;DHT22;4511;50.890;8.054;2023-08-07T01:30:13;12.70;99.90
8953;DHT22;4511;50.890;8.054;2023-08-07T01:32:49;12.80;99.90
8953;DHT22;4511;50.890;8.054;2023-08-07T01:35:22;12.60;99.90
8953;DHT22;4511;50.890;8.054;2023-08-07T01:37:54;12.70;99.90
8953;DHT22;4511;50.890;8.054;2023-08-07T01:40:22;12.70;99.90
8953;DHT22;4511;50.890;8.054;2023-08-07T01:42:49;12.70;99.90
8953;DHT22;4511;50.890;8.054;2023-08-07T01:45:23;12.70;99.90
8953;DHT22;4511;50.890;8.054;2023-08-07T01:47:50;12.70;99.90
8953;DHT22;4511;50.890;8.054;2023-08-07T01:50:18;12.80;99.90
8953;DHT22;4511;50.890;8.054;2023-08-07T01:52:45;12.70;99.90
8953;DHT22;4511;50.890;8.054;2023-08-07T01:55:13;12.80;99.90
8953;DHT22;4511;50.890;8.054;2023-08-07T01:57:40;12.60;99.90
8953;DHT22;4511;50.890;8.054;2023-08-07T02:00:08;12.50;99.90
8953;DHT22;4511;50.890;8.054;2023-08-07T02:02:35;12.60;99.90
8953;DHT22;4511;50.890;8.054;2023-08-07T02:05:02;12.60;99.90
8953;DHT22;4511;50.890;8.054;2023-08-07T02:07:29;12.70;99.90
8953;DHT22;4511;50.890;8.054;2023-08-07T02:09:57;12.60;99.90
8953;DHT22;4511;50.890;8.054;2023-08-07T02:12:25;12.60;99.90
8953;DHT22;4511;50.890;8.054;2023-08-07T02:14:53;12.60;99.90
8953;DHT22;4511;50.890;8.054;2023-08-07T02:17:20;12.70;99.90
8953;DHT22;4511;50.890;8.054;2023-08-07T02:19:48;12.60;99.90
8953;DHT22;4511;50.890;8.054;2023-08-07T02:22:15;12.80;99.90
8953;DHT22;4511;50.890;8.054;2023-08-07T02:24:41;12.70;99.90
8953;DHT22;4511;50.890;8.054;2023-08-07T02:27:08;12.70;99.90
8953;DHT22;4511;50.890;8.054;2023-08-07T02:29:36;12.80;99.90
8953;DHT22;4511;50.890;8.054;2023-08-07T02:32:04;12.60;99.90
8953;DHT22;4511;50.890;8.054;2023-08-07T02:34:30;12.80;99.90
8953;DHT22;4511;50.890;8.054;2023-08-07T02:36:57;12.80;99.90
8953;DHT22;4511;50.890;8.054;2023-08-07T02:39:24;12.80;99.90
8953;DHT22;4511;50.890;8.054;2023-08-07T02:41:51;12.70;99.90
8953;DHT22;4511;50.890;8.054;2023-08-07T02:44:18;12.70;99.90
8953;DHT22;4511;50.890;8.054;2023-08-07T02:46:46;12.70;99.90
8953;DHT22;4511;50.890;8.054;2023-08-07T02:49:13;12.60;99.90
8953;DHT22;4511;50.890;8.054;2023-08-07T02:51:40;12.60;99.90
8953;DHT22;4511;50.890;8.054;2023-08-07T02:54:07;12.70;99.90
8953;DHT22;4511;50.890;8.054;2023-08-07T02:56:33;12.60;99.90
8953;DHT22;4511;50.890;8.054;2023-08-07T02:59:00;12.60;99.90
8953;DHT22;4511;50.890;8.054;2023-08-07T03:01:28;12.50;99.90
8953;DHT22;4511;50.890;8.054;2023-08-07T03:03:56;12.50;99.90
8953;DHT22;4511;50.890;8.054;2023-08-07T03:06:23;12.70;99.90
8953;DHT22;4511;50.890;8.054;2023-08-07T03:08:50;12.70;99.90
8953;DHT22;4511;50.890;8.054;2023-08-07T03:11:17;12.50;99.90
8953;DHT22;4511;50.890;8.054;2023-08-07T03:13:43;12.60;99.90
8953;DHT22;4511;50.890;8.054;2023-08-07T03:16:10;12.70;99.90
8953;DHT22;4511;50.890;8.054;2023-08-07T03:18:37;12.70;99.90
8953;DHT22;4511;50.890;8.054;2023-08-07T03:21:05;12.50;99.90
8953;DHT22;4511;50.890;8.054;2023-08-07T03:23:32;12.60;99.90
8953;DHT22;4511;50.890;8.054;2023-08-07T03:26:03;12.50;99.90
8953;DHT22;4511;50.890;8.054;2023-08-07T03:28:30;12.50;99.90
8953;DHT22;4511;50.890;8.054;2023-08-07T03:30:57;12.60;99.90
8953;DHT22;4511;50.890;8.054;2023-08-07T03:33:24;12.50;99.90
8953;DHT22;4511;50.890;8.054;2023-08-07T03:35:51;12.50;99.90
8953;DHT22;4511;50.890;8.054;2023-08-07T03:38:19;12.60;99.90
8953;DHT22;4511;50.890;8.054;2023-08-07T03:40:46;12.50;99.90
8953;DHT22;4511;50.890;8.054;2023-08-07T03:43:13;12.40;99.90
8953;DHT22;4511;50.890;8.054;2023-08-07T03:45:40;12.40;99.90
8953;DHT22;4511;50.890;8.054;2023-08-07T03:48:06;12.50;99.90
8953;DHT22;4511;50.890;8.054;2023-08-07T03:50:33;12.50;99.90
8953;DHT22;4511;50.890;8.054;2023-08-07T03:53:02;12.30;99.90
8953;DHT22;4511;50.890;8.054;2023-08-07T03:55:31;12.50;99.90
8953;DHT22;4511;50.890;8.054;2023-08-07T03:57:58;12.40;99.90
8953;DHT22;4511;50.890;8.054;2023-08-07T04:00:25;12.50;99.90
8953;DHT22;4511;50.890;8.054;2023-08-07T04:02:51;12.50;99.90
8953;DHT22;4511;50.890;8.054;2023-08-07T04:05:18;12.60;99.90
8953;DHT22;4511;50.890;8.054;2023-08-07T04:07:45;12.60;99.90
8953;DHT22;4511;50.890;8.054;2023-08-07T04:10:12;12.60;99.90
8953;DHT22;4511;50.890;8.054;2023-08-07T04:12:40;12.50;99.90
8953;DHT22;4511;50.890;8.054;2023-08-07T04:15:07;12.50;99.90
8953;DHT22;4511;50.890;8.054;2023-08-07T04:17:35;12.40;99.90
8953;DHT22;4511;50.890;8.054;2023-08-07T04:20:03;12.50;99.90
8953;DHT22;4511;50.890;8.054;2023-08-07T04:22:30;12.50;99.90
8953;DHT22;4511;50.890;8.054;2023-08-07T04:24:57;12.50;99.90
8953;DHT22;4511;50.890;8.054;2023-08-07T04:27:25;12.50;99.90
8953;DHT22;4511;50.890;8.054;2023-08-07T04:29:54;12.40;99.90
8953;DHT22;4511;50.890;8.054;2023-08-07T04:32:21;12.50;99.90
8953;DHT22;4511;50.890;8.054;2023-08-07T04:34:47;12.60;99.90
8953;DHT22;4511;50.890;8.054;2023-08-07T04:37:14;12.40;99.90
8953;DHT22;4511;50.890;8.054;2023-08-07T04:39:41;12.40;99.90
8953;DHT22;4511;50.890;8.054;2023-08-07T04:42:08;12.50;99.90
8953;DHT22;4511;50.890;8.054;2023-08-07T04:44:35;12.40;99.90
8953;DHT22;4511;50.890;8.054;2023-08-07T04:47:03;12.40;99.90
8953;DHT22;4511;50.890;8.054;2023-08-07T04:49:30;12.30;99.90
8953;DHT22;4511;50.890;8.054;2023-08-07T04:51:57;12.30;99.90
8953;DHT22;4511;50.890;8.054;2023-08-07T04:54:24;12.30;99.90
8953;DHT22;4511;50.890;8.054;2023-08-07T04:56:51;12.30;99.90
8953;DHT22;4511;50.890;8.054;2023-08-07T04:59:18;12.50;99.90
8953;DHT22;4511;50.890;8.054;2023-08-07T05:01:44;12.60;99.90
8953;DHT22;4511;50.890;8.054;2023-08-07T05:04:12;12.40;99.90
8953;DHT22;4511;50.890;8.054;2023-08-07T05:06:39;12.40;99.90
8953;DHT22;4511;50.890;8.054;2023-08-07T05:09:06;12.40;99.90
8953;DHT22;4511;50.890;8.054;2023-08-07T05:11:33;12.50;99.90
8953;DHT22;4511;50.890;8.054;2023-08-07T05:14:00;12.50;99.90
8953;DHT22;4511;50.890;8.054;2023-08-07T05:16:26;12.40;99.90
8953;DHT22;4511;50.890;8.054;2023-08-07T05:18:53;12.40;99.90
8953;DHT22;4511;50.890;8.054;2023-08-07T05:21:21;12.50;99.90
8953;DHT22;4511;50.890;8.054;2023-08-07T05:23:48;12.40;99.90
8953;DHT22;4511;50.890;8.054;2023-08-07T05:26:18;12.50;99.90
8953;DHT22;4511;50.890;8.054;2023-08-07T05:28:45;12.60;99.90
8953;DHT22;4511;50.890;8.054;2023-08-07T05:31:12;12.50;99.90
8953;DHT22;4511;50.890;8.054;2023-08-07T05:33:39;12.50;99.90
8953;DHT22;4511;50.890;8.054;2023-08-07T05:36:06;12.60;99.90
8953;DHT22;4511;50.890;8.054;2023-08-07T05:38:34;12.60;99.90
8953;DHT22;4511;50.890;8.054;2023-08-07T05:41:01;12.60;99.90
8953;DHT22;4511;50.890;8.054;2023-08-07T05:43:28;12.50;99.90
8953;DHT22;4511;50.890;8.054;2023-08-07T05:45:55;12.60;99.90
8953;DHT22;4511;50.890;8.054;2023-08-07T05:48:22;12.70;99.90
8953;DHT22;4511;50.890;8.054;2023-08-07T05:50:48;12.80;99.90
8953;DHT22;4511;50.890;8.054;2023-08-07T05:53:15;12.60;99.90
8953;DHT22;4511;50.890;8.054;2023-08-07T05:55:43;12.70;99.90
8953;DHT22;4511;50.890;8.054;2023-08-07T05:58:10;12.50;99.90
8953;DHT22;4511;50.890;8.054;2023-08-07T06:00:37;12.50;99.90
8953;DHT22;4511;50.890;8.054;2023-08-07T06:03:04;12.50;99.90
8953;DHT22;4511;50.890;8.054;2023-08-07T06:05:30;12.50;99.90
8953;DHT22;4511;50.890;8.054;2023-08-07T06:07:57;12.50;99.90
8953;DHT22;4511;50.890;8.054;2023-08-07T06:10:24;12.50;99.90
8953;DHT22;4511;50.890;8.054;2023-08-07T06:12:52;12.60;99.90
8953;DHT22;4511;50.890;8.054;2023-08-07T06:15:19;12.60;99.90
8953;DHT22;4511;50.890;8.054;2023-08-07T06:17:46;12.40;99.90
8953;DHT22;4511;50.890;8.054;2023-08-07T06:20:13;12.30;99.90
8953;DHT22;4511;50.890;8.054;2023-08-07T06:22:41;12.40;99.90
8953;DHT22;4511;50.890;8.054;2023-08-07T06:25:08;12.50;99.90
8953;DHT22;4511;50.890;8.054;2023-08-07T06:27:35;12.40;99.90
8953;DHT22;4511;50.890;8.054;2023-08-07T06:30:04;12.40;99.90
8953;DHT22;4511;50.890;8.054;2023-08-07T06:32:32;12.30;99.90
8953;DHT22;4511;50.890;8.054;2023-08-07T06:34:58;12.40;99.90
8953;DHT22;4511;50.890;8.054;2023-08-07T06:37:25;12.50;99.90
8953;DHT22;4511;50.890;8.054;2023-08-07T06:39:52;12.50;99.90
8953;DHT22;4511;50.890;8.054;2023-08-07T06:42:19;12.60;99.90
8953;DHT22;4511;50.890;8.054;2023-08-07T06:44:46;12.70;99.90
8953;DHT22;4511;50.890;8.054;2023-08-07T06:47:14;12.30;99.90
8953;DHT22;4511;50.890;8.054;2023-08-07T06:49:41;12.20;99.90
8953;DHT22;4511;50.890;8.054;2023-08-07T06:52:07;12.30;99.90
8953;DHT22;4511;50.890;8.054;2023-08-07T06:54:34;12.20;99.90
8953;DHT22;4511;50.890;8.054;2023-08-07T06:57:01;12.40;99.90
8953;DHT22;4511;50.890;8.054;2023-08-07T06:59:28;12.40;99.90
8953;DHT22;4511;50.890;8.054;2023-08-07T07:01:54;12.40;99.90
8953;DHT22;4511;50.890;8.054;2023-08-07T07:04:23;12.50;99.90
8953;DHT22;4511;50.890;8.054;2023-08-07T07:06:49;12.50;99.90
8953;DHT22;4511;50.890;8.054;2023-08-07T07:09:16;12.40;99.90
8953;DHT22;4511;50.890;8.054;2023-08-07T07:11:43;12.40;99.90
8953;DHT22;4511;50.890;8.054;2023-08-07T07:14:10;12.40;99.90
8953;DHT22;4511;50.890;8.054;2023-08-07T07:16:37;12.50;99.90
8953;DHT22;4511;50.890;8.054;2023-08-07T07:19:04;12.40;99.90
8953;DHT22;4511;50.890;8.054;2023-08-07T07:21:33;12.50;99.90
8953;DHT22;4511;50.890;8.054;2023-08-07T07:24:01;12.40;99.90
8953;DHT22;4511;50.890;8.054;2023-08-07T07:26:27;12.50;99.90
8953;DHT22;4511;50.890;8.054;2023-08-07T07:28:54;12.50;99.90
8953;DHT22;4511;50.890;8.054;2023-08-07T07:31:21;12.40;99.90
8953;DHT22;4511;50.890;8.054;2023-08-07T07:33:48;12.40;99.90
8953;DHT22;4511;50.890;8.054;2023-08-07T07:36:15;12.40;99.90
8953;DHT22;4511;50.890;8.054;2023-08-07T07:38:45;12.50;99.90
8953;DHT22;4511;50.890;8.054;2023-08-07T07:41:13;12.50;99.90
8953;DHT22;4511;50.890;8.054;2023-08-07T07:43:40;12.60;99.90
8953;DHT22;4511;50.890;8.054;2023-08-07T07:46:07;12.50;99.90
8953;DHT22;4511;50.890;8.054;2023-08-07T07:48:34;12.50;99.90
8953;DHT22;4511;50.890;8.054;2023-08-07T07:51:01;12.50;99.90
8953;DHT22;4511;50.890;8.054;2023-08-07T07:53:28;12.30;99.90
8953;DHT22;4511;50.890;8.054;2023-08-07T07:55:56;12.40;99.90
8953;DHT22;4511;50.890;8.054;2023-08-07T07:58:23;12.30;99.90
8953;DHT22;4511;50.890;8.054;2023-08-07T08:00:50;12.40;99.90
8953;DHT22;4511;50.890;8.054;2023-08-07T08:03:19;12.40;99.90
8953;DHT22;4511;50.890;8.054;2023-08-07T08:05:48;12.40;99.90
8953;DHT22;4511;50.890;8.054;2023-08-07T08:08:15;12.40;99.90
8953;DHT22;4511;50.890;8.054;2023-08-07T08:10:42;12.40;99.90
8953;DHT22;4511;50.890;8.054;2023-08-07T08:13:11;12.40;99.90
8953;DHT22;4511;50.890;8.054;2023-08-07T08:15:38;12.40;99.90
8953;DHT22;4511;50.890;8.054;2023-08-07T08:18:05;12.50;99.90
8953;DHT22;4511;50.890;8.054;2023-08-07T08:20:31;12.60;99.90
8953;DHT22;4511;50.890;8.054;2023-08-07T08:22:58;12.40;99.90
8953;DHT22;4511;50.890;8.054;2023-08-07T08:25:25;12.40;99.90
8953;DHT22;4511;50.890;8.054;2023-08-07T08:27:52;12.40;99.90
8953;DHT22;4511;50.890;8.054;2023-08-07T08:30:21;12.40;99.90
8953;DHT22;4511;50.890;8.054;2023-08-07T08:32:47;12.50;99.90
8953;DHT22;4511;50.890;8.054;2023-08-07T08:35:14;12.50;99.90
8953;DHT22;4511;50.890;8.054;2023-08-07T08:37:41;12.60;99.90
8953;DHT22;4511;50.890;8.054;2023-08-07T08:40:09;12.70;99.90
8953;DHT22;4511;50.890;8.054;2023-08-07T08:42:39;12.60;99.90
8953;DHT22;4511;50.890;8.054;2023-08-07T08:45:09;12.70;99.90
8953;DHT22;4511;50.890;8.054;2023-08-07T08:47:39;12.80;99.90
8953;DHT22;4511;50.890;8.054;2023-08-07T08:50:08;12.80;99.90
8953;DHT22;4511;50.890;8.054;2023-08-07T08:52:37;12.90;99.90
8953;DHT22;4511;50.890;8.054;2023-08-07T08:55:05;12.80;99.90
8953;DHT22;4511;50.890;8.054;2023-08-07T08:57:33;12.80;99.90
8953;DHT22;4511;50.890;8.054;2023-08-07T09:00:01;12.90;99.90
8953;DHT22;4511;50.890;8.054;2023-08-07T09:02:32;13.10;99.90
8953;DHT22;4511;50.890;8.054;2023-08-07T09:05:00;13.10;99.90
8953;DHT22;4511;50.890;8.054;2023-08-07T09:07:27;13.30;99.90
8953;DHT22;4511;50.890;8.054;2023-08-07T09:09:54;13.50;99.90
8953;DHT22;4511;50.890;8.054;2023-08-07T09:12:25;13.60;99.90
8953;DHT22;4511;50.890;8.054;2023-08-07T09:14:56;13.40;99.90
8953;DHT22;4511;50.890;8.054;2023-08-07T09:17:24;13.50;99.90
8953;DHT22;4511;50.890;8.054;2023-08-07T09:19:51;13.40;99.90
8953;DHT22;4511;50.890;8.054;2023-08-07T09:22:20;13.50;99.90
8953;DHT22;4511;50.890;8.054;2023-08-07T09:24:47;13.60;99.90
8953;DHT22;4511;50.890;8.054;2023-08-07T09:27:15;13.50;99.90
8953;DHT22;4511;50.890;8.054;2023-08-07T09:29:43;13.40;99.90
8953;DHT22;4511;50.890;8.054;2023-08-07T09:32:12;13.50;99.90
8953;DHT22;4511;50.890;8.054;2023-08-07T09:34:39;13.60;99.90
8953;DHT22;4511;50.890;8.054;2023-08-07T09:37:07;13.70;99.90
8953;DHT22;4511;50.890;8.054;2023-08-07T09:39:35;13.70;99.90
8953;DHT22;4511;50.890;8.054;2023-08-07T09:42:03;13.80;99.90
8953;DHT22;4511;50.890;8.054;2023-08-07T09:44:35;13.80;99.90
8953;DHT22;4511;50.890;8.054;2023-08-07T09:47:11;13.70;99.90
8953;DHT22;4511;50.890;8.054;2023-08-07T09:49:38;13.70;99.90
8953;DHT22;4511;50.890;8.054;2023-08-07T09:52:06;13.70;99.90
8953;DHT22;4511;50.890;8.054;2023-08-07T09:54:36;13.80;99.90
8953;DHT22;4511;50.890;8.054;2023-08-07T09:57:04;14.00;99.90
8953;DHT22;4511;50.890;8.054;2023-08-07T09:59:32;13.60;99.90
8953;DHT22;4511;50.890;8.054;2023-08-07T10:02:00;13.80;99.90
8953;DHT22;4511;50.890;8.054;2023-08-07T10:04:27;14.00;99.90
8953;DHT22;4511;50.890;8.054;2023-08-07T10:06:54;14.10;99.90
8953;DHT22;4511;50.890;8.054;2023-08-07T10:09:22;13.90;99.90
8953;DHT22;4511;50.890;8.054;2023-08-07T10:11:50;14.00;99.90
8953;DHT22;4511;50.890;8.054;2023-08-07T10:14:18;13.90;99.90
8953;DHT22;4511;50.890;8.054;2023-08-07T10:16:45;13.90;99.90
8953;DHT22;4511;50.890;8.054;2023-08-07T10:19:12;13.90;99.90
8953;DHT22;4511;50.890;8.054;2023-08-07T10:21:39;14.10;99.90
8953;DHT22;4511;50.890;8.054;2023-08-07T10:24:08;14.20;99.90
8953;DHT22;4511;50.890;8.054;2023-08-07T10:26:37;14.20;99.90
8953;DHT22;4511;50.890;8.054;2023-08-07T10:29:11;14.00;99.90
8953;DHT22;4511;50.890;8.054;2023-08-07T10:31:40;14.10;99.90
8953;DHT22;4511;50.890;8.054;2023-08-07T10:34:08;14.00;99.90
8953;DHT22;4511;50.890;8.054;2023-08-07T10:36:36;14.10;99.90
8953;DHT22;4511;50.890;8.054;2023-08-07T10:39:06;14.10;99.90
8953;DHT22;4511;50.890;8.054;2023-08-07T10:41:38;14.20;99.90
8953;DHT22;4511;50.890;8.054;2023-08-07T10:44:17;14.20;99.90
8953;DHT22;4511;50.890;8.054;2023-08-07T10:46:48;14.30;99.90
8953;DHT22;4511;50.890;8.054;2023-08-07T10:49:30;14.20;99.90
8953;DHT22;4511;50.890;8.054;2023-08-07T10:51:58;14.40;99.90
8953;DHT22;4511;50.890;8.054;2023-08-07T10:54:25;14.30;99.90
8953;DHT22;4511;50.890;8.054;2023-08-07T10:56:54;14.70;99.90
8953;DHT22;4511;50.890;8.054;2023-08-07T10:59:22;15.00;99.90
8953;DHT22;4511;50.890;8.054;2023-08-07T11:01:54;14.70;99.90
8953;DHT22;4511;50.890;8.054;2023-08-07T11:04:22;14.60;99.90
8953;DHT22;4511;50.890;8.054;2023-08-07T11:09:20;14.10;99.90
8953;DHT22;4511;50.890;8.054;2023-08-07T11:11:50;14.50;99.90
8953;DHT22;4511;50.890;8.054;2023-08-07T11:14:18;14.50;99.90
8953;DHT22;4511;50.890;8.054;2023-08-07T11:16:48;14.70;99.90
8953;DHT22;4511;50.890;8.054;2023-08-07T11:19:16;14.50;99.90
8953;DHT22;4511;50.890;8.054;2023-08-07T11:21:44;14.40;99.90
8953;DHT22;4511;50.890;8.054;2023-08-07T11:24:12;14.30;99.90
8953;DHT22;4511;50.890;8.054;2023-08-07T11:29:06;14.70;99.90
8953;DHT22;4511;50.890;8.054;2023-08-07T11:31:34;14.90;99.90
8953;DHT22;4511;50.890;8.054;2023-08-07T11:34:03;15.10;99.90
8953;DHT22;4511;50.890;8.054;2023-08-07T11:36:30;14.90;99.90
8953;DHT22;4511;50.890;8.054;2023-08-07T11:38:59;14.60;99.90
8953;DHT22;4511;50.890;8.054;2023-08-07T11:41:25;14.50;99.90
8953;DHT22;4511;50.890;8.054;2023-08-07T11:43:52;14.40;99.90
8953;DHT22;4511;50.890;8.054;2023-08-07T11:46:19;14.80;99.90
8953;DHT22;4511;50.890;8.054;2023-08-07T11:48:47;14.70;99.90
8953;DHT22;4511;50.890;8.054;2023-08-07T11:51:16;15.10;99.90
8953;DHT22;4511;50.890;8.054;2023-08-07T11:53:43;15.50;99.90
8953;DHT22;4511;50.890;8.054;2023-08-07T11:56:10;15.80;99.90
8953;DHT22;4511;50.890;8.054;2023-08-07T11:58:41;15.40;99.90
8953;DHT22;4511;50.890;8.054;2023-08-07T12:01:10;15.50;99.90
8953;DHT22;4511;50.890;8.054;2023-08-07T12:03:38;15.40;99.90
8953;DHT22;4511;50.890;8.054;2023-08-07T12:06:06;15.20;99.90
8953;DHT22;4511;50.890;8.054;2023-08-07T12:08:36;15.40;99.90
8953;DHT22;4511;50.890;8.054;2023-08-07T12:11:03;15.50;99.90
8953;DHT22;4511;50.890;8.054;2023-08-07T12:13:31;15.60;99.90
8953;DHT22;4511;50.890;8.054;2023-08-07T12:16:00;15.60;99.90
8953;DHT22;4511;50.890;8.054;2023-08-07T12:18:28;15.30;99.90
8953;DHT22;4511;50.890;8.054;2023-08-07T12:20:59;15.40;99.90
8953;DHT22;4511;50.890;8.054;2023-08-07T12:23:27;15.30;99.90
8953;DHT22;4511;50.890;8.054;2023-08-07T12:25:55;15.60;99.90
8953;DHT22;4511;50.890;8.054;2023-08-07T12:28:22;15.70;99.90
8953;DHT22;4511;50.890;8.054;2023-08-07T12:30:50;15.70;99.90
8953;DHT22;4511;50.890;8.054;2023-08-07T12:33:18;15.80;99.90
8953;DHT22;4511;50.890;8.054;2023-08-07T12:35:45;15.40;99.90
8953;DHT22;4511;50.890;8.054;2023-08-07T12:38:12;15.40;99.90
8953;DHT22;4511;50.890;8.054;2023-08-07T12:40:40;15.10;99.90
8953;DHT22;4511;50.890;8.054;2023-08-07T12:43:09;15.00;99.90
8953;DHT22;4511;50.890;8.054;2023-08-07T12:45:35;14.90;99.90
8953;DHT22;4511;50.890;8.054;2023-08-07T12:48:02;15.00;99.90
8953;DHT22;4511;50.890;8.054;2023-08-07T12:50:29;15.00;99.90
8953;DHT22;4511;50.890;8.054;2023-08-07T12:52:56;15.20;99.90
8953;DHT22;4511;50.890;8.054;2023-08-07T12:55:24;15.10;99.90
8953;DHT22;4511;50.890;8.054;2023-08-07T12:57:52;15.30;99.90
8953;DHT22;4511;50.890;8.054;2023-08-07T13:00:21;15.90;99.90
8953;DHT22;4511;50.890;8.054;2023-08-07T13:02:49;16.10;99.90
8953;DHT22;4511;50.890;8.054;2023-08-07T13:05:17;17.00;99.90
8953;DHT22;4511;50.890;8.054;2023-08-07T13:07:45;17.30;99.90
8953;DHT22;4511;50.890;8.054;2023-08-07T13:10:13;18.00;99.90
8953;DHT22;4511;50.890;8.054;2023-08-07T13:12:42;18.10;99.90
8953;DHT22;4511;50.890;8.054;2023-08-07T13:15:12;18.60;99.90
8953;DHT22;4511;50.890;8.054;2023-08-07T13:17:41;18.80;99.90
8953;DHT22;4511;50.890;8.054;2023-08-07T13:20:09;18.60;99.90
8953;DHT22;4511;50.890;8.054;2023-08-07T13:22:38;18.90;99.90
8953;DHT22;4511;50.890;8.054;2023-08-07T13:25:06;18.80;99.90
8953;DHT22;4511;50.890;8.054;2023-08-07T13:27:36;18.80;99.90
8953;DHT22;4511;50.890;8.054;2023-08-07T13:30:04;18.70;99.90
8953;DHT22;4511;50.890;8.054;2023-08-07T13:32:31;18.30;99.90
8953;DHT22;4511;50.890;8.054;2023-08-07T13:35:00;18.20;99.90
8953;DHT22;4511;50.890;8.054;2023-08-07T13:37:28;17.40;99.90
8953;DHT22;4511;50.890;8.054;2023-08-07T13:39:54;17.40;99.90
8953;DHT22;4511;50.890;8.054;2023-08-07T13:42:23;17.40;99.90
8953;DHT22;4511;50.890;8.054;2023-08-07T13:44:50;17.70;99.90
8953;DHT22;4511;50.890;8.054;2023-08-07T13:47:17;19.00;99.90
8953;DHT22;4511;50.890;8.054;2023-08-07T13:49:46;19.40;99.90
8953;DHT22;4511;50.890;8.054;2023-08-07T13:52:14;20.00;99.90
8953;DHT22;4511;50.890;8.054;2023-08-07T13:54:41;19.40;99.90
8953;DHT22;4511;50.890;8.054;2023-08-07T13:57:08;19.40;99.90
8953;DHT22;4511;50.890;8.054;2023-08-07T13:59:34;18.80;99.90
8953;DHT22;4511;50.890;8.054;2023-08-07T14:02:01;19.00;99.90
8953;DHT22;4511;50.890;8.054;2023-08-07T14:04:28;19.70;99.90
8953;DHT22;4511;50.890;8.054;2023-08-07T14:06:55;20.20;99.90
8953;DHT22;4511;50.890;8.054;2023-08-07T14:09:23;19.80;99.90
8953;DHT22;4511;50.890;8.054;2023-08-07T14:11:50;19.50;99.90
8953;DHT22;4511;50.890;8.054;2023-08-07T14:14:17;19.80;99.90
8953;DHT22;4511;50.890;8.054;2023-08-07T14:16:44;20.60;99.90
8953;DHT22;4511;50.890;8.054;2023-08-07T14:19:10;20.30;99.90
8953;DHT22;4511;50.890;8.054;2023-08-07T14:21:37;20.20;99.90
8953;DHT22;4511;50.890;8.054;2023-08-07T14:24:05;19.90;99.90
8953;DHT22;4511;50.890;8.054;2023-08-07T14:26:33;19.90;99.90
8953;DHT22;4511;50.890;8.054;2023-08-07T14:29:00;19.60;99.90
8953;DHT22;4511;50.890;8.054;2023-08-07T14:31:27;19.60;99.90
8953;DHT22;4511;50.890;8.054;2023-08-07T14:33:53;19.60;99.90
8953;DHT22;4511;50.890;8.054;2023-08-07T14:36:21;19.90;99.90
8953;DHT22;4511;50.890;8.054;2023-08-07T14:38:48;20.10;99.90
8953;DHT22;4511;50.890;8.054;2023-08-07T14:41:15;20.20;99.90
8953;DHT22;4511;50.890;8.054;2023-08-07T14:43:44;20.80;99.90
8953;DHT22;4511;50.890;8.054;2023-08-07T14:46:11;21.90;99.90
8953;DHT22;4511;50.890;8.054;2023-08-07T14:53:32;22.00;96.50
8953;DHT22;4511;50.890;8.054;2023-08-07T14:56:00;22.80;99.30
8953;DHT22;4511;50.890;8.054;2023-08-07T14:58:27;22.90;98.40
8953;DHT22;4511;50.890;8.054;2023-08-07T15:03:23;23.00;87.80
8953;DHT22;4511;50.890;8.054;2023-08-07T15:05:49;22.80;90.40
8953;DHT22;4511;50.890;8.054;2023-08-07T15:08:16;22.40;93.30
8953;DHT22;4511;50.890;8.054;2023-08-07T15:10:43;22.60;88.30
8953;DHT22;4511;50.890;8.054;2023-08-07T15:13:10;22.90;92.60
8953;DHT22;4511;50.890;8.054;2023-08-07T15:15:39;23.70;77.30
8953;DHT22;4511;50.890;8.054;2023-08-07T15:20:34;24.20;78.40
8953;DHT22;4511;50.890;8.054;2023-08-07T15:23:02;24.00;74.60
8953;DHT22;4511;50.890;8.054;2023-08-07T15:27:56;24.40;71.40
8953;DHT22;4511;50.890;8.054;2023-08-07T15:30:26;24.80;67.80
8953;DHT22;4511;50.890;8.054;2023-08-07T15:32:54;24.70;68.80
8953;DHT22;4511;50.890;8.054;2023-08-07T15:35:22;24.80;69.00
8953;DHT22;4511;50.890;8.054;2023-08-07T15:37:49;25.60;67.60
8953;DHT22;4511;50.890;8.054;2023-08-07T15:40:16;25.90;63.90
8953;DHT22;4511;50.890;8.054;2023-08-07T15:42:43;24.80;62.60
8953;DHT22;4511;50.890;8.054;2023-08-07T15:45:11;24.40;65.20
8953;DHT22;4511;50.890;8.054;2023-08-07T15:47:38;25.10;67.00
8953;DHT22;4511;50.890;8.054;2023-08-07T15:50:06;25.80;66.60
8953;DHT22;4511;50.890;8.054;2023-08-07T15:52:34;26.50;60.80
8953;DHT22;4511;50.890;8.054;2023-08-07T15:55:01;26.70;59.10
8953;DHT22;4511;50.890;8.054;2023-08-07T15:57:28;25.60;59.90
8953;DHT22;4511;50.890;8.054;2023-08-07T15:59:55;25.80;61.70
8953;DHT22;4511;50.890;8.054;2023-08-07T16:02:21;26.00;59.50
8953;DHT22;4511;50.890;8.054;2023-08-07T16:04:48;26.00;59.80
8953;DHT22;4511;50.890;8.054;2023-08-07T16:07:16;25.80;62.50
8953;DHT22;4511;50.890;8.054;2023-08-07T16:09:44;26.00;61.90
8953;DHT22;4511;50.890;8.054;2023-08-07T16:12:11;26.10;61.30
8953;DHT22;4511;50.890;8.054;2023-08-07T16:14:37;26.70;59.80
8953;DHT22;4511;50.890;8.054;2023-08-07T16:17:04;26.80;59.20
8953;DHT22;4511;50.890;8.054;2023-08-07T16:19:31;26.50;60.70
8953;DHT22;4511;50.890;8.054;2023-08-07T16:21:58;25.70;62.00